Time;durP1;ratioP1;P1;durP2;ratioP2;P2;SDS_P1;SDS_P2;PMS_P1;PMS_P2;Temp;Humidity;BMP_temperature;BMP_pressure;BME280_temperature;BME280_humidity;BME280_pressure;Samples;Min_cycle;Max_cycle;Signal;HPM_P1;HPM_P2
2021/09/10 00:01:59;;;;;;;28.07;17.63;;;;;;;20.22;100.00;101030.94;4906232;30;20037;-67
2021/09/10 00:04:30;;;;;;;25.03;17.37;;;;;;;20.21;100.00;101037.28;4903457;30;20042;-66
2021/09/10 00:07:02;;;;;;;22.97;16.13;;;;;;;20.20;100.00;101031.16;4893895;30;20049;-68
2021/09/10 00:09:33;;;;;;;24.43;16.03;;;;;;;20.15;100.00;101033.53;4896847;30;20033;-67
2021/09/10 00:12:04;;;;;;;20.90;15.50;;;;;;;20.11;100.00;101029.59;4896962;30;20063;-68
2021/09/10 00:14:36;;;;;;;19.93;14.90;;;;;;;20.12;100.00;101036.59;4895190;30;20052;-68
2021/09/10 00:17:07;;;;;;;19.30;15.53;;;;;;;20.08;100.00;101033.47;4892519;30;20457;-67
2021/09/10 00:19:38;;;;;;;19.50;15.20;;;;;;;20.08;100.00;101030.00;4903404;30;20122;-68
2021/09/10 00:22:09;;;;;;;20.03;15.77;;;;;;;20.05;100.00;101022.41;4893475;30;20041;-68
2021/09/10 00:24:41;;;;;;;18.30;14.53;;;;;;;20.02;100.00;101026.25;4893954;30;20069;-68
2021/09/10 00:27:13;;;;;;;19.73;14.37;;;;;;;19.98;100.00;101019.66;4891767;30;20449;-68
2021/09/10 00:29:44;;;;;;;17.03;14.90;;;;;;;19.97;100.00;101019.84;4901885;30;20515;-67
2021/09/10 00:32:15;;;;;;;17.73;15.07;;;;;;;19.94;100.00;101023.69;4911710;30;20051;-67
2021/09/10 00:34:47;;;;;;;18.70;14.53;;;;;;;19.98;100.00;101029.47;4911524;30;20040;-68
2021/09/10 00:37:18;;;;;;;17.93;14.13;;;;;;;19.96;100.00;101029.63;4899075;30;20095;-68
2021/09/10 00:39:49;;;;;;;18.00;14.83;;;;;;;19.94;100.00;101031.69;4900229;30;20076;-67
2021/09/10 00:42:21;;;;;;;17.37;14.50;;;;;;;19.91;100.00;101029.38;4893172;30;20062;-68
2021/09/10 00:44:52;;;;;;;15.70;13.30;;;;;;;19.89;100.00;101026.94;4893012;30;20087;-67
2021/09/10 00:47:23;;;;;;;15.10;13.50;;;;;;;19.85;100.00;101024.81;4900338;30;20037;-68
2021/09/10 00:49:55;;;;;;;15.13;13.63;;;;;;;19.82;100.00;101030.50;4910327;30;20029;-68
2021/09/10 00:52:26;;;;;;;14.10;12.60;;;;;;;19.82;100.00;101035.84;4911041;30;20465;-68
2021/09/10 00:54:58;;;;;;;17.63;13.43;;;;;;;19.79;100.00;101030.88;4909336;30;20056;-67
2021/09/10 00:57:29;;;;;;;15.67;12.33;;;;;;;19.75;100.00;101021.63;4903582;30;20039;-68
2021/09/10 01:00:01;;;;;;;14.27;12.77;;;;;;;19.74;100.00;101033.28;4899696;30;20041;-67
2021/09/10 01:02:32;;;;;;;13.20;11.67;;;;;;;19.73;100.00;101027.13;4904169;30;20048;-68
2021/09/10 01:05:04;;;;;;;14.50;12.03;;;;;;;19.73;100.00;101024.47;4903723;30;20098;-67
2021/09/10 01:07:35;;;;;;;14.50;12.77;;;;;;;19.72;100.00;101020.16;4909587;30;20142;-67
2021/09/10 01:10:07;;;;;;;13.97;12.53;;;;;;;19.69;100.00;101021.34;4903955;30;20037;-67
2021/09/10 01:12:40;;;;;;;13.40;11.70;;;;;;;19.65;100.00;101025.38;4903622;30;20554;-68
2021/09/10 01:15:11;;;;;;;12.68;11.38;;;;;;;19.66;100.00;101021.75;4910461;30;20469;-67
2021/09/10 01:17:43;;;;;;;13.03;11.67;;;;;;;19.69;100.00;101020.53;4909496;30;20044;-68
2021/09/10 01:20:14;;;;;;;13.43;12.03;;;;;;;19.62;100.00;101014.28;4905298;30;20029;-68
2021/09/10 01:22:46;;;;;;;12.70;11.43;;;;;;;19.60;100.00;101019.78;4908958;30;20035;-67
2021/09/10 01:25:19;;;;;;;12.47;11.23;;;;;;;19.61;100.00;101018.75;4899261;30;20494;-68
2021/09/10 01:27:56;;;;;;;13.13;11.20;;;;;;;19.55;100.00;101013.38;4907474;30;20037;-67
2021/09/10 01:30:31;;;;;;;12.57;11.27;;;;;;;19.51;100.00;101015.59;4903432;30;20408;-67
2021/09/10 01:33:05;;;;;;;15.00;11.60;;;;;;;19.57;100.00;101008.69;4898970;30;20561;-67
2021/09/10 01:35:38;;;;;;;11.38;10.27;;;;;;;19.51;100.00;101004.97;4901498;30;20473;-67
2021/09/10 01:38:10;;;;;;;15.70;11.40;;;;;;;19.55;100.00;101008.06;4910192;30;20181;-67
2021/09/10 01:40:41;;;;;;;13.87;10.63;;;;;;;19.50;100.00;101013.91;4902183;30;20043;-67
2021/09/10 01:43:15;;;;;;;12.00;10.80;;;;;;;19.49;100.00;101006.97;4903204;30;20132;-68
2021/09/10 01:45:46;;;;;;;11.10;9.90;;;;;;;19.48;100.00;101012.47;4908409;30;20052;-68
2021/09/10 01:48:17;;;;;;;14.40;10.67;;;;;;;19.47;100.00;101013.47;4907816;30;20412;-67
2021/09/10 01:50:49;;;;;;;13.07;10.83;;;;;;;19.45;100.00;101019.78;4901045;30;20513;-66
2021/09/10 01:53:21;;;;;;;12.13;10.83;;;;;;;19.43;100.00;101011.19;4910083;30;20041;-68
2021/09/10 01:55:52;;;;;;;11.73;10.52;;;;;;;19.39;100.00;101012.53;4906922;30;20057;-68
2021/09/10 01:58:24;;;;;;;11.77;10.60;;;;;;;19.36;100.00;101004.13;4899222;30;20168;-68
2021/09/10 02:00:55;;;;;;;11.40;10.20;;;;;;;19.35;100.00;101010.44;4895093;30;20030;-67
2021/09/10 02:03:27;;;;;;;12.63;9.97;;;;;;;19.36;100.00;101006.81;4891822;30;20025;-67
2021/09/10 02:05:59;;;;;;;12.50;10.73;;;;;;;19.34;100.00;101011.47;4892373;30;20041;-68
2021/09/10 02:08:30;;;;;;;12.10;9.87;;;;;;;19.31;100.00;101012.63;4899066;30;20404;-67
2021/09/10 02:11:01;;;;;;;12.23;10.23;;;;;;;19.28;100.00;101012.19;4891802;30;20041;-68
2021/09/10 02:13:32;;;;;;;11.57;10.37;;;;;;;19.27;100.00;101005.22;4892115;30;20042;-68
2021/09/10 02:16:04;;;;;;;11.03;9.83;;;;;;;19.24;100.00;101011.72;4900087;30;20037;-67
2021/09/10 02:18:35;;;;;;;11.87;9.90;;;;;;;19.25;100.00;101012.56;4899099;30;20116;-67
2021/09/10 02:21:07;;;;;;;11.03;9.93;;;;;;;19.21;100.00;101006.78;4891697;30;20386;-67
2021/09/10 02:23:38;;;;;;;12.17;10.93;;;;;;;19.18;100.00;101013.28;4892009;30;20033;-66
2021/09/10 02:26:09;;;;;;;11.13;10.03;;;;;;;19.14;100.00;101009.34;4901546;30;20045;-68
2021/09/10 02:28:41;;;;;;;11.33;10.23;;;;;;;19.16;100.00;101011.81;4894379;30;20405;-67
2021/09/10 02:31:12;;;;;;;13.97;10.43;;;;;;;19.13;100.00;101015.66;4904036;30;20037;-67
2021/09/10 02:33:43;;;;;;;13.27;10.13;;;;;;;19.07;100.00;101007.59;4903716;30;20041;-67
2021/09/10 02:36:15;;;;;;;11.53;9.10;;;;;;;19.08;100.00;101015.38;4896979;30;20086;-66
2021/09/10 02:38:46;;;;;;;12.57;10.27;;;;;;;19.05;100.00;101015.72;4909871;30;20060;-67
2021/09/10 02:41:17;;;;;;;12.53;11.23;;;;;;;19.01;100.00;101016.28;4907546;30;20041;-67
2021/09/10 02:43:49;;;;;;;12.87;10.20;;;;;;;19.01;100.00;101011.78;4902170;30;20061;-68
2021/09/10 02:46:20;;;;;;;11.53;10.43;;;;;;;18.99;100.00;101020.97;4911433;30;20037;-69
2021/09/10 02:48:52;;;;;;;11.87;10.67;;;;;;;18.96;100.00;101019.50;4912903;30;20037;-67
2021/09/10 02:51:23;;;;;;;12.27;9.43;;;;;;;18.94;100.00;101014.38;4902715;30;20036;-68
2021/09/10 02:53:54;;;;;;;11.97;10.60;;;;;;;18.91;100.00;101014.72;4910855;30;20052;-67
2021/09/10 02:56:26;;;;;;;11.40;10.10;;;;;;;18.88;100.00;101007.13;4910636;30;20511;-67
2021/09/10 02:58:57;;;;;;;13.03;11.70;;;;;;;18.88;100.00;101014.25;4901801;30;20045;-67
2021/09/10 03:01:29;;;;;;;13.10;10.97;;;;;;;18.83;100.00;101008.69;4908929;30;20029;-66
2021/09/10 03:04:00;;;;;;;11.10;9.93;;;;;;;18.84;100.00;101015.63;4912820;30;20520;-66
2021/09/10 03:06:31;;;;;;;11.23;10.13;;;;;;;18.82;100.00;101014.97;4907445;30;20489;-66
2021/09/10 03:09:03;;;;;;;12.40;10.13;;;;;;;18.81;100.00;101006.19;4894681;30;20444;-67
2021/09/10 03:11:34;;;;;;;12.30;10.67;;;;;;;18.80;100.00;101012.50;4894511;30;20044;-68
2021/09/10 03:14:05;;;;;;;11.60;10.43;;;;;;;18.79;100.00;101010.88;4893306;30;20120;-66
2021/09/10 03:16:37;;;;;;;12.00;10.63;;;;;;;18.77;100.00;101018.16;4905694;30;20082;-66
2021/09/10 03:19:09;;;;;;;12.57;11.27;;;;;;;18.74;100.00;101009.72;4894596;30;20405;-66
2021/09/10 03:21:40;;;;;;;13.13;10.60;;;;;;;18.71;100.00;101006.44;4894415;30;20045;-67
2021/09/10 03:24:12;;;;;;;11.53;10.30;;;;;;;18.70;100.00;101015.41;4899396;30;20190;-66
2021/09/10 03:26:43;;;;;;;12.27;10.20;;;;;;;18.69;100.00;101013.72;4903094;30;20405;-66
2021/09/10 03:29:14;;;;;;;12.67;11.43;;;;;;;18.66;100.00;101018.56;4894232;30;20041;-67
2021/09/10 03:31:46;;;;;;;12.90;11.47;;;;;;;18.63;100.00;101014.44;4895849;30;20176;-66
2021/09/10 03:34:17;;;;;;;11.82;10.55;;;;;;;18.61;100.00;101011.13;4904807;30;20075;-68
2021/09/10 03:36:48;;;;;;;12.90;11.67;;;;;;;18.65;100.00;101009.78;4897175;30;20670;-66
2021/09/10 03:39:20;;;;;;;12.40;11.10;;;;;;;18.63;100.00;101017.06;4894134;30;20037;-67
2021/09/10 03:41:51;;;;;;;13.93;11.55;;;;;;;18.59;100.00;101010.47;4901961;30;20507;-66
2021/09/10 03:44:23;;;;;;;13.13;11.53;;;;;;;18.57;100.00;101011.69;4911757;30;20136;-66
2021/09/10 03:46:54;;;;;;;12.63;11.33;;;;;;;18.59;100.00;101013.13;4900980;30;20476;-67
2021/09/10 03:49:26;;;;;;;13.18;11.40;;;;;;;18.56;100.00;101013.50;4901249;30;20033;-66
2021/09/10 03:51:57;;;;;;;13.60;11.87;;;;;;;18.56;100.00;101012.66;4911470;30;20051;-66
2021/09/10 03:54:29;;;;;;;13.23;11.63;;;;;;;18.56;100.00;101000.25;4911625;30;20029;-66
2021/09/10 03:57:00;;;;;;;13.83;12.40;;;;;;;18.56;100.00;101007.34;4893241;30;20417;-68
2021/09/10 03:59:31;;;;;;;14.00;12.50;;;;;;;18.56;100.00;101008.22;4904439;30;20033;-66
2021/09/10 04:02:03;;;;;;;14.93;12.48;;;;;;;18.55;100.00;101011.84;4901606;30;20068;-66
2021/09/10 04:04:34;;;;;;;13.77;11.03;;;;;;;18.57;100.00;101009.03;4899785;30;20060;-68
2021/09/10 04:07:06;;;;;;;13.13;11.73;;;;;;;18.57;100.00;101014.34;4906404;30;20072;-66
2021/09/10 04:09:37;;;;;;;14.23;12.10;;;;;;;18.58;100.00;101018.63;4901224;30;20037;-66
2021/09/10 04:12:08;;;;;;;12.93;11.63;;;;;;;18.54;100.00;101010.19;4912258;30;20047;-66
2021/09/10 04:14:39;;;;;;;15.80;12.30;;;;;;;18.56;100.00;101012.66;4910839;30;20048;-66
2021/09/10 04:17:11;;;;;;;13.93;12.18;;;;;;;18.52;100.00;101009.53;4900133;30;20034;-66
2021/09/10 04:19:42;;;;;;;12.80;11.50;;;;;;;18.53;100.00;101010.38;4909149;30;20033;-67
2021/09/10 04:22:14;;;;;;;14.67;12.47;;;;;;;18.51;100.00;101009.72;4910576;30;20025;-66
2021/09/10 04:24:46;;;;;;;13.63;11.65;;;;;;;18.51;100.00;101009.72;4907713;30;20036;-65
2021/09/10 04:27:17;;;;;;;13.20;11.77;;;;;;;18.51;100.00;101013.22;4900359;30;20033;-66
2021/09/10 04:29:49;;;;;;;15.67;11.70;;;;;;;18.50;100.00;101019.53;4893011;30;20065;-66
2021/09/10 04:32:20;;;;;;;14.27;11.73;;;;;;;18.48;100.00;101010.91;4898596;30;20037;-67
2021/09/10 04:34:51;;;;;;;13.80;12.13;;;;;;;18.50;100.00;101008.09;4902463;30;20041;-67
2021/09/10 04:37:23;;;;;;;15.87;12.47;;;;;;;18.46;100.00;101012.91;4909102;30;20132;-65
2021/09/10 04:39:55;;;;;;;13.57;11.77;;;;;;;18.48;100.00;101017.03;4901896;30;20388;-66
2021/09/10 04:42:27;;;;;;;17.53;12.97;;;;;;;18.47;100.00;101011.91;4900517;30;20049;-66
2021/09/10 04:44:58;;;;;;;13.57;12.17;;;;;;;18.48;100.00;101021.50;4902117;30;20044;-68
2021/09/10 04:47:29;;;;;;;14.70;12.50;;;;;;;18.51;100.00;101010.56;4903271;30;20448;-66
2021/09/10 04:50:00;;;;;;;13.73;12.43;;;;;;;18.51;100.00;101015.84;4899888;30;20116;-67
2021/09/10 04:52:33;;;;;;;15.50;12.38;;;;;;;18.50;100.00;101016.88;4900031;30;20035;-67
2021/09/10 04:55:08;;;;;;;14.45;13.05;;;;;;;18.53;100.00;101016.53;4896272;30;20099;-67
2021/09/10 04:57:40;;;;;;;14.38;13.02;;;;;;;18.49;100.00;101020.53;4901595;30;20037;-66
2021/09/10 05:00:12;;;;;;;15.57;12.57;;;;;;;18.50;100.00;101019.53;4900670;30;20088;-67
2021/09/10 05:02:43;;;;;;;14.93;13.37;;;;;;;18.49;100.00;101020.53;4902986;30;20120;-67
2021/09/10 05:05:15;;;;;;;14.63;13.03;;;;;;;18.51;100.00;101021.16;4900759;30;20063;-66
2021/09/10 05:07:46;;;;;;;14.17;12.20;;;;;;;18.51;100.00;101015.84;4900243;30;20048;-66
2021/09/10 05:10:17;;;;;;;13.98;12.38;;;;;;;18.53;100.00;101024.47;4895432;30;20029;-67
2021/09/10 05:12:48;;;;;;;14.82;12.02;;;;;;;18.52;100.00;101022.81;4894588;30;20029;-66
2021/09/10 05:15:20;;;;;;;15.97;13.33;;;;;;;18.55;100.00;101021.63;4900628;30;20509;-66
2021/09/10 05:17:51;;;;;;;12.97;11.67;;;;;;;18.56;100.00;101017.97;4898743;30;20065;-65
2021/09/10 05:20:22;;;;;;;14.18;12.70;;;;;;;18.56;100.00;101018.81;4905008;30;20071;-66
2021/09/10 05:22:54;;;;;;;14.90;12.90;;;;;;;18.59;100.00;101020.28;4901954;30;20044;-66
2021/09/10 05:25:26;;;;;;;14.32;12.93;;;;;;;18.58;100.00;101016.81;4902262;30;20091;-68
2021/09/10 05:27:57;;;;;;;16.88;13.07;;;;;;;18.61;100.00;101021.75;4900893;30;20033;-67
2021/09/10 05:30:28;;;;;;;13.63;12.20;;;;;;;18.64;100.00;101026.72;4901692;30;20068;-66
2021/09/10 05:32:59;;;;;;;16.93;12.47;;;;;;;18.66;100.00;101026.53;4894179;30;20440;-66
2021/09/10 05:35:31;;;;;;;16.93;12.63;;;;;;;18.68;100.00;101028.00;4902074;30;20025;-67
2021/09/10 05:38:02;;;;;;;14.50;12.50;;;;;;;18.71;100.00;101027.69;4897083;30;20116;-66
2021/09/10 05:40:33;;;;;;;14.53;12.67;;;;;;;18.68;100.00;101025.34;4900023;30;20045;-66
2021/09/10 05:43:05;;;;;;;14.73;12.33;;;;;;;18.75;100.00;101036.09;4909946;30;20125;-66
2021/09/10 05:45:37;;;;;;;15.30;11.52;;;;;;;18.73;100.00;101030.16;4902312;30;20087;-66
2021/09/10 05:48:08;;;;;;;14.97;12.37;;;;;;;18.76;100.00;101044.91;4899415;30;20464;-67
2021/09/10 05:50:39;;;;;;;16.10;12.27;;;;;;;18.76;100.00;101047.56;4907854;30;20044;-67
2021/09/10 05:53:11;;;;;;;16.37;11.97;;;;;;;18.73;100.00;101037.28;4903096;30;20459;-67
2021/09/10 05:55:43;;;;;;;12.60;11.30;;;;;;;18.77;100.00;101047.34;4905992;30;20107;-66
2021/09/10 05:58:14;;;;;;;12.88;10.80;;;;;;;18.79;100.00;101048.03;4902922;30;20025;-66
2021/09/10 06:00:46;;;;;;;11.47;10.37;;;;;;;18.81;100.00;101056.63;4902880;30;20055;-66
2021/09/10 06:03:17;;;;;;;12.63;10.50;;;;;;;18.84;100.00;101058.91;4898676;30;20394;-66
2021/09/10 06:05:48;;;;;;;12.63;10.13;;;;;;;18.86;100.00;101059.53;4896748;30;20081;-66
2021/09/10 06:08:20;;;;;;;11.53;10.23;;;;;;;18.87;100.00;101063.88;4901761;30;20408;-67
2021/09/10 06:10:51;;;;;;;10.83;9.30;;;;;;;18.90;100.00;101062.66;4908781;30;20440;-67
2021/09/10 06:13:22;;;;;;;13.63;10.30;;;;;;;18.91;100.00;101062.50;4899542;30;20489;-67
2021/09/10 06:15:54;;;;;;;11.27;10.00;;;;;;;18.94;100.00;101061.31;4908743;30;20120;-68
2021/09/10 06:18:25;;;;;;;11.82;9.20;;;;;;;18.96;100.00;101065.44;4908041;30;20049;-66
2021/09/10 06:20:57;;;;;;;10.77;9.13;;;;;;;19.01;100.00;101066.72;4894816;30;20477;-66
2021/09/10 06:23:28;;;;;;;12.80;9.47;;;;;;;19.02;100.00;101066.56;4902494;30;20493;-66
2021/09/10 06:26:00;;;;;;;11.57;8.97;;;;;;;19.05;100.00;101073.34;4913128;30;20116;-66
2021/09/10 06:28:31;;;;;;;14.10;9.87;;;;;;;19.06;100.00;101073.16;4910791;30;20045;-66
2021/09/10 06:31:03;;;;;;;11.83;9.40;;;;;;;19.07;100.00;101085.44;4909528;30;20052;-67
2021/09/10 06:33:34;;;;;;;11.50;9.53;;;;;;;19.08;100.00;101091.56;4895583;30;20049;-66
2021/09/10 06:36:05;;;;;;;11.10;8.53;;;;;;;19.12;100.00;101098.97;4904147;30;20521;-66
2021/09/10 06:38:37;;;;;;;12.50;9.10;;;;;;;19.12;100.00;101098.16;4912111;30;20037;-67
2021/09/10 06:41:08;;;;;;;10.60;9.07;;;;;;;19.15;100.00;101101.28;4906072;30;20058;-66
2021/09/10 06:43:39;;;;;;;10.57;8.70;;;;;;;19.18;100.00;101102.78;4913382;30;20136;-66
2021/09/10 06:46:11;;;;;;;13.87;8.83;;;;;;;19.18;100.00;101092.97;4909585;30;20030;-66
2021/09/10 06:48:42;;;;;;;12.10;9.27;;;;;;;19.22;100.00;101103.25;4903999;30;20037;-67
2021/09/10 06:51:13;;;;;;;11.63;8.73;;;;;;;19.25;100.00;101106.34;4907078;30;20485;-67
2021/09/10 06:53:45;;;;;;;9.13;8.20;;;;;;;19.31;100.00;101104.78;4913535;30;20521;-66
2021/09/10 06:56:16;;;;;;;15.07;9.67;;;;;;;19.32;100.00;101109.09;4905792;30;20035;-66
2021/09/10 06:58:48;;;;;;;12.67;8.97;;;;;;;19.34;100.00;101109.75;4902290;30;20516;-68
2021/09/10 07:01:19;;;;;;;12.17;9.20;;;;;;;19.41;100.00;101110.69;4909636;30;20281;-67
2021/09/10 07:03:51;;;;;;;12.33;8.53;;;;;;;19.45;100.00;101109.31;4905488;30;20076;-67
2021/09/10 07:06:22;;;;;;;9.80;7.63;;;;;;;19.53;100.00;101119.03;4905447;30;20106;-67
2021/09/10 07:08:53;;;;;;;12.97;8.23;;;;;;;19.59;100.00;101113.81;4894842;30;20396;-67
2021/09/10 07:11:25;;;;;;;10.53;8.70;;;;;;;19.64;100.00;101116.78;4894281;30;20034;-66
2021/09/10 07:13:56;;;;;;;11.27;8.07;;;;;;;19.66;100.00;101117.44;4904706;30;20029;-66
2021/09/10 07:16:28;;;;;;;11.07;8.17;;;;;;;19.71;100.00;101114.22;4912294;30;20040;-66
2021/09/10 07:19:00;;;;;;;10.70;8.13;;;;;;;19.73;100.00;101114.03;4894795;30;20041;-66
2021/09/10 07:21:31;;;;;;;9.23;7.40;;;;;;;19.77;100.00;101129.41;4901179;30;20037;-67
2021/09/10 07:24:04;;;;;;;12.90;8.03;;;;;;;19.79;100.00;101132.72;4905297;30;20033;-66
2021/09/10 07:26:36;;;;;;;10.35;7.93;;;;;;;19.80;100.00;101134.38;4911283;30;20504;-66
2021/09/10 07:29:07;;;;;;;9.10;6.87;;;;;;;19.84;100.00;101137.50;4894528;30;20040;-68
2021/09/10 07:31:38;;;;;;;9.27;7.30;;;;;;;19.85;100.00;101136.47;4907436;30;20033;-66
2021/09/10 07:34:10;;;;;;;13.27;7.10;;;;;;;19.91;100.00;101143.72;4906115;30;20036;-67
2021/09/10 07:36:41;;;;;;;12.53;7.20;;;;;;;19.92;100.00;101140.06;4900924;30;20029;-66
2021/09/10 07:39:13;;;;;;;9.33;7.13;;;;;;;19.96;100.00;101138.66;4912377;30;20045;-66
2021/09/10 07:41:45;;;;;;;8.60;7.60;;;;;;;20.00;100.00;101137.31;4903634;30;20029;-67
2021/09/10 07:44:17;;;;;;;9.73;7.30;;;;;;;20.08;100.00;101145.19;4911928;30;20061;-66
2021/09/10 07:46:53;;;;;;;9.68;7.47;;;;;;;20.10;100.00;101151.13;4906408;30;20045;-67
2021/09/10 07:49:24;;;;;;;16.10;7.60;;;;;;;20.15;100.00;101151.44;4909844;30;20029;-67
2021/09/10 07:51:55;;;;;;;10.60;7.43;;;;;;;20.21;100.00;101154.34;4904329;30;20403;-66
2021/09/10 07:54:27;;;;;;;8.53;7.27;;;;;;;20.26;100.00;101159.91;4912105;30;20516;-67
2021/09/10 07:56:58;;;;;;;8.87;7.43;;;;;;;20.31;100.00;101166.34;4908007;30;20474;-69
2021/09/10 07:59:29;;;;;;;11.37;8.17;;;;;;;20.32;100.00;101167.16;4904118;30;20044;-67
2021/09/10 08:02:01;;;;;;;12.07;7.43;;;;;;;20.36;100.00;101163.94;4893819;30;20095;-67
2021/09/10 08:04:32;;;;;;;9.90;8.17;;;;;;;20.45;100.00;101167.31;4894006;30;20033;-67
2021/09/10 08:07:04;;;;;;;11.50;7.73;;;;;;;20.49;100.00;101171.28;4897203;30;20029;-67
2021/09/10 08:09:35;;;;;;;11.80;7.40;;;;;;;20.52;100.00;101168.25;4904124;30;20124;-67
2021/09/10 08:12:07;;;;;;;11.07;7.00;;;;;;;20.57;100.00;101162.34;4893733;30;20083;-69
2021/09/10 08:14:38;;;;;;;11.80;7.07;;;;;;;20.61;100.00;101163.66;4893688;30;20441;-66
2021/09/10 08:17:09;;;;;;;11.33;6.83;;;;;;;20.65;100.00;101157.75;4906656;30;20103;-67
2021/09/10 08:19:41;;;;;;;10.73;7.80;;;;;;;20.71;100.00;101164.16;4895603;30;20037;-67
2021/09/10 08:22:12;;;;;;;10.17;6.77;;;;;;;20.81;100.00;101161.19;4893556;30;20046;-66
2021/09/10 08:24:45;;;;;;;10.27;6.90;;;;;;;20.89;100.00;101158.41;4894429;30;20046;-68
2021/09/10 08:27:17;;;;;;;10.82;6.78;;;;;;;20.95;100.00;101151.47;4898639;30;20041;-67
2021/09/10 08:29:48;;;;;;;9.63;7.13;;;;;;;21.03;100.00;101159.38;4900068;30;20553;-67
2021/09/10 08:32:19;;;;;;;9.97;6.87;;;;;;;21.16;100.00;101151.47;4893242;30;20494;-67
2021/09/10 08:34:52;;;;;;;9.83;6.90;;;;;;;21.29;100.00;101159.59;4893301;30;20086;-67
2021/09/10 08:37:23;;;;;;;9.85;6.68;;;;;;;21.32;100.00;101159.19;4893544;30;20029;-66
2021/09/10 08:39:55;;;;;;;7.87;6.30;;;;;;;21.48;100.00;101168.78;4900213;30;20044;-67
2021/09/10 08:42:26;;;;;;;8.73;6.15;;;;;;;21.56;100.00;101173.97;4892535;30;20034;-67
2021/09/10 08:44:58;;;;;;;11.00;5.90;;;;;;;21.70;100.00;101171.38;4896001;30;20063;-66
2021/09/10 08:47:30;;;;;;;7.73;5.77;;;;;;;21.77;100.00;101172.25;4898842;30;20216;-67
2021/09/10 08:50:02;;;;;;;9.45;6.05;;;;;;;21.89;100.00;101176.00;4892957;30;20046;-66
2021/09/10 08:52:34;;;;;;;9.07;6.25;;;;;;;21.97;100.00;101185.69;4893237;30;20060;-67
2021/09/10 08:55:07;;;;;;;10.10;6.20;;;;;;;22.04;100.00;101179.38;4907161;30;20034;-67
2021/09/10 08:57:50;;;;;;;8.45;5.53;;;;;;;22.27;100.00;101186.28;4900863;30;20053;-67
2021/09/10 09:00:28;;;;;;;8.20;5.68;;;;;;;22.39;100.00;101183.88;4901335;30;20040;-67
2021/09/10 09:03:02;;;;;;;8.52;6.15;;;;;;;22.46;100.00;101177.53;4903170;30;20044;-67
2021/09/10 09:05:34;;;;;;;8.80;6.28;;;;;;;22.47;100.00;101175.72;4910701;30;20044;-67
2021/09/10 09:08:08;;;;;;;8.77;6.20;;;;;;;22.54;100.00;101172.03;4903286;30;20029;-67
2021/09/10 09:11:03;;;;;;;6.95;5.78;;;;;;;22.73;100.00;101178.44;4899516;30;20077;-67
2021/09/10 09:13:40;;;;;;;8.43;6.05;;;;;;;22.76;100.00;101175.34;4907332;30;20037;-67
2021/09/10 09:16:32;;;;;;;7.65;5.07;;;;;;;22.90;100.00;101178.88;4910803;30;20040;-67
2021/09/10 09:19:06;;;;;;;8.45;4.90;;;;;;;22.98;100.00;101177.91;4900830;30;20055;-67
2021/09/10 09:21:38;;;;;;;6.30;4.88;;;;;;;;;;4895116;30;20037;-67
2021/09/10 09:24:18;;;;;;;8.05;4.93;;;;;;;23.08;100.00;101189.00;4892504;30;20063;-67
2021/09/10 09:26:52;;;;;;;6.20;4.38;;;;;;;23.05;100.00;101192.09;4892719;30;20394;-67
2021/09/10 09:29:23;;;;;;;8.35;4.63;;;;;;;23.08;100.00;101188.19;4896996;30;20048;-67
2021/09/10 09:31:56;;;;;;;7.37;5.23;;;;;;;23.18;100.00;101194.75;4892512;30;20034;-67
2021/09/10 09:34:47;;;;;;;8.85;4.50;;;;;;;23.26;100.00;101193.75;4892118;30;20038;-67
2021/09/10 09:37:24;;;;;;;6.88;4.63;;;;;;;23.24;100.00;101196.63;4905829;30;20032;-67
2021/09/10 09:39:56;;;;;;;6.93;5.30;;;;;;;23.23;100.00;101199.53;4901329;30;20040;-67
2021/09/10 09:42:33;;;;;;;5.87;4.30;;;;;;;23.41;100.00;101197.06;4895174;30;20040;-68
2021/09/10 09:45:09;;;;;;;5.38;4.75;;;;;;;23.36;100.00;101210.19;4891121;30;20045;-67
2021/09/10 09:47:42;;;;;;;7.28;4.63;;;;;;;23.47;100.00;101201.56;4896537;30;20045;-67
2021/09/10 09:50:17;;;;;;;9.07;4.68;;;;;;;23.48;100.00;101199.69;4910315;30;20061;-67
2021/09/10 09:52:51;;;;;;;6.70;4.57;;;;;;;23.51;100.00;101205.47;4910197;30;20043;-67
2021/09/10 09:55:22;;;;;;;7.65;4.55;;;;;;;23.51;100.00;101205.47;4899030;30;20500;-68
2021/09/10 09:57:55;;;;;;;10.02;4.63;;;;;;;23.53;100.00;101200.75;4904886;30;20056;-67
2021/09/10 10:00:27;;;;;;;9.20;4.90;;;;;;;23.56;100.00;101196.81;4900247;30;20037;-68
2021/09/10 10:03:01;;;;;;;7.15;4.70;;;;;;;23.72;100.00;101207.13;4891389;30;20033;-67
2021/09/10 10:06:16;;;;;;;7.05;4.97;;;;;;;23.87;100.00;101198.88;4899041;30;20034;-67
2021/09/10 10:09:06;;;;;;;7.30;4.90;;;;;;;24.15;100.00;101203.94;4893178;30;20037;-68
2021/09/10 10:11:49;;;;;;;8.88;4.95;;;;;;;24.11;100.00;101200.03;4892353;30;20049;-67
2021/09/10 10:14:32;;;;;;;9.50;4.45;;;;;;;24.20;100.00;101203.31;4902688;30;20033;-67
2021/09/10 10:17:04;;;;;;;8.05;4.13;;;;;;;24.09;100.00;101198.59;4908958;30;20477;-68
2021/09/10 10:19:36;;;;;;;;;;;;;;;24.48;100.00;101203.03;4897888;30;20033;-67
2021/09/10 10:22:11;;;;;;;9.32;4.07;;;;;;;24.15;100.00;101203.13;4902225;30;20374;-67
2021/09/10 10:24:56;;;;;;;7.38;4.40;;;;;;;24.16;100.00;101199.41;4910106;30;20481;-68
2021/09/10 10:27:41;;;;;;;6.00;4.25;;;;;;;24.14;100.00;101199.63;4901891;30;20068;-68
2021/09/10 10:30:15;;;;;;;5.95;4.15;;;;;;;24.08;100.00;101194.28;4898412;30;20477;-67
2021/09/10 10:32:51;;;;;;;5.68;3.80;;;;;;;24.02;100.00;101194.09;4891993;30;20033;-68
2021/09/10 10:35:39;;;;;;;6.22;4.10;;;;;;;23.96;100.00;101191.44;4892336;30;20116;-68
2021/09/10 10:38:11;;;;;;;7.85;4.13;;;;;;;23.98;100.00;101182.19;4899352;30;20519;-68
2021/09/10 10:40:51;;;;;;;8.38;4.45;;;;;;;24.05;100.00;101182.13;4909395;30;20045;-68
2021/09/10 10:43:28;;;;;;;8.35;4.65;;;;;;;23.99;100.00;101183.81;4910026;30;20070;-68
2021/09/10 10:46:00;;;;;;;5.72;4.70;;;;;;;23.93;100.00;101171.25;4900708;30;20069;-68
2021/09/10 10:48:32;;;;;;;10.18;4.45;;;;;;;23.96;100.00;101173.53;4901836;30;20140;-68
2021/09/10 10:51:09;;;;;;;6.03;4.03;;;;;;;23.84;100.00;101179.75;4909496;30;20051;-68
2021/09/10 10:53:43;;;;;;;7.95;4.53;;;;;;;23.71;100.00;101175.22;4909756;30;20045;-68
2021/09/10 10:56:26;;;;;;;7.07;5.10;;;;;;;23.65;100.00;101171.50;4898743;30;20029;-67
2021/09/10 10:59:21;;;;;;;8.68;4.68;;;;;;;23.59;100.00;101177.69;4894492;30;20048;-67
2021/09/10 11:02:19;;;;;;;11.05;5.90;;;;;;;23.42;100.00;101176.47;4891390;30;20034;-67
2021/09/10 11:04:57;;;;;;;7.63;5.35;;;;;;;23.07;100.00;101171.34;4901174;30;20132;-67
2021/09/10 11:07:30;;;;;;;7.53;4.97;;;;;;;22.95;100.00;101163.09;4908951;30;20076;-67
2021/09/10 11:10:14;;;;;;;7.18;5.55;;;;;;;22.94;100.00;101171.31;4894491;30;20037;-67
2021/09/10 11:12:48;;;;;;;10.05;5.38;;;;;;;22.70;100.00;101170.84;4901858;30;20044;-67
2021/09/10 11:15:21;;;;;;;10.40;6.75;;;;;;;22.61;100.00;101172.03;4907624;30;20033;-67
2021/09/10 11:17:53;;;;;;;13.55;6.93;;;;;;;22.37;100.00;101181.41;4906319;30;20041;-67
2021/09/10 11:20:56;;;;;;;11.95;6.95;;;;;;;22.34;100.00;101193.28;4900427;30;20091;-67
2021/09/10 11:23:32;;;;;;;12.52;8.05;;;;;;;22.14;100.00;101197.72;4894399;30;20059;-67
2021/09/10 11:26:07;;;;;;;12.63;7.75;;;;;;;21.97;100.00;101202.56;4894252;30;20129;-67
2021/09/10 11:28:40;;;;;;;13.75;7.53;;;;;;;21.94;100.00;101197.59;4905310;30;20120;-67
2021/09/10 11:31:11;;;;;;;;;;;;;;;22.35;100.00;101199.50;4895320;30;20049;-67
2021/09/10 11:33:43;;;;;;;;;;;;;;;22.27;100.00;101188.97;4895095;30;19938;-67
2021/09/10 11:36:24;;;;;;;;;;;;;;;22.24;100.00;101194.72;4902477;30;20005;-67